Time;durP1;ratioP1;P1;durP2;ratioP2;P2;SDS_P1;SDS_P2;PMS_P1;PMS_P2;Temp;Humidity;BMP_temperature;BMP_pressure;BME280_temperature;BME280_humidity;BME280_pressure;Samples;Min_cycle;Max_cycle;Signal;HPM_P1;HPM_P2
2022/09/26 00:01:35;;;;;;;5.70;4.17;;;;;;;-141.28;100.00;50345.91;5093750;28;20306;-75
2022/09/26 00:04:04;;;;;;;7.17;4.27;;;;;;;-141.28;100.00;50359.66;5074044;28;20192;-76
2022/09/26 00:06:31;;;;;;;5.37;4.00;;;;;;;-141.28;100.00;50377.31;5087862;28;20208;-75
2022/09/26 00:08:59;;;;;;;6.23;4.23;;;;;;;-141.28;100.00;50357.69;5073996;28;20252;-73
2022/09/26 00:11:31;;;;;;;4.57;4.07;;;;;;;-141.28;100.00;50310.59;5076165;28;20235;-74
2022/09/26 00:14:00;;;;;;;9.37;4.67;;;;;;;-141.28;100.00;50290.97;5114236;28;20636;-74
2022/09/26 00:16:27;;;;;;;6.23;4.10;;;;;;;-141.28;100.00;50294.88;5081499;28;20269;-75
2022/09/26 00:18:57;;;;;;;4.40;4.00;;;;;;;-141.28;100.00;50259.56;5075870;28;20261;-74
2022/09/26 00:21:26;;;;;;;7.37;4.30;;;;;;;-141.28;100.00;50255.63;5087830;28;20207;-74
2022/09/26 00:23:54;;;;;;;11.73;5.27;;;;;;;-141.28;100.00;50228.16;5086474;28;20196;-76
2022/09/26 00:26:24;;;;;;;11.47;5.03;;;;;;;-141.28;100.00;50259.56;5080701;28;20199;-76
2022/09/26 00:28:53;;;;;;;11.27;6.13;;;;;;;-141.28;100.00;50259.56;5081136;28;20223;-74
2022/09/26 00:31:22;;;;;;;13.70;6.87;;;;;;;-141.28;100.00;50220.28;5080629;28;20620;-75
2022/09/26 00:33:49;;;;;;;11.73;8.20;;;;;;;-141.28;100.00;50287.03;5093460;28;20252;-74
2022/09/26 00:36:18;;;;;;;13.50;8.20;;;;;;;-141.28;100.00;50216.38;5080853;28;20277;-76
2022/09/26 00:38:45;;;;;;;10.30;7.07;;;;;;;-141.28;100.00;50212.44;5078744;28;20192;-75
2022/09/26 00:41:14;;;;;;;9.80;6.73;;;;;;;-141.28;100.00;50232.06;5081176;28;20653;-75
2022/09/26 00:43:42;;;;;;;8.57;5.13;;;;;;;-141.28;100.00;50188.91;5078590;28;20671;-76
2022/09/26 00:46:21;;;;;;;8.23;5.27;;;;;;;-141.28;100.00;50226.19;5073524;28;20732;-76
2022/09/26 00:48:54;;;;;;;9.03;5.30;;;;;;;-141.28;100.00;50234.03;5076147;28;20219;-74
2022/09/26 00:51:22;;;;;;;8.30;5.30;;;;;;;-141.28;100.00;50232.06;5093139;28;20222;-75
2022/09/26 00:53:52;;;;;;;7.37;4.80;;;;;;;-141.28;100.00;50228.16;5074529;28;20200;-76
2022/09/26 00:56:24;;;;;;;7.47;5.23;;;;;;;-141.28;100.00;50200.66;5073328;28;20227;-76
2022/09/26 00:58:55;;;;;;;5.83;4.87;;;;;;;-141.28;100.00;50204.59;5086477;28;20327;-75
2022/09/26 01:01:22;;;;;;;8.67;4.83;;;;;;;-141.28;100.00;50177.13;5086513;28;20199;-76
2022/09/26 01:03:50;;;;;;;6.63;4.70;;;;;;;-141.28;100.00;50204.59;5080750;28;20634;-75
2022/09/26 01:06:18;;;;;;;7.37;4.80;;;;;;;-141.28;100.00;50169.28;5077831;28;20327;-75
2022/09/26 01:08:52;;;;;;;9.47;5.27;;;;;;;-141.28;100.00;50169.28;5076628;28;20195;-76
2022/09/26 01:11:19;;;;;;;6.67;4.67;;;;;;;-141.28;100.00;50183.00;5089301;28;20228;-76
2022/09/26 01:13:47;;;;;;;5.20;4.30;;;;;;;-141.28;100.00;50157.50;5083166;28;20256;-75
2022/09/26 01:16:15;;;;;;;8.03;4.77;;;;;;;-141.28;100.00;50186.94;5079085;28;20219;-75
2022/09/26 01:18:43;;;;;;;6.03;4.80;;;;;;;-141.28;100.00;50165.34;5081584;28;20258;-76
2022/09/26 01:21:37;;;;;;;6.27;4.67;;;;;;;-141.28;100.00;50200.66;5073724;28;20193;-75
2022/09/26 01:24:34;;;;;;;6.20;4.90;;;;;;;-141.28;100.00;50273.28;5080440;28;20223;-75
2022/09/26 01:27:20;;;;;;;6.73;4.83;;;;;;;-141.28;100.00;50259.56;5086240;28;20204;-75
2022/09/26 01:30:08;;;;;;;11.03;5.27;;;;;;;-141.28;100.00;50279.19;5072760;28;20196;-76
2022/09/26 01:32:58;;;;;;;7.67;5.20;;;;;;;-141.28;100.00;50263.47;5102475;28;20661;-74
2022/09/26 01:35:47;;;;;;;8.30;5.00;;;;;;;-141.28;100.00;50283.09;5075639;28;20206;-74
2022/09/26 01:38:24;;;;;;;9.43;4.70;;;;;;;-141.28;100.00;50257.59;5086297;28;20254;-75
2022/09/26 01:41:05;;;;;;;9.43;5.23;;;;;;;-141.28;100.00;50230.13;5085664;28;20675;-75
2022/09/26 01:43:40;;;;;;;9.33;5.37;;;;;;;-141.28;100.00;50204.59;5090311;28;20206;-77
2022/09/26 01:46:20;;;;;;;6.63;5.33;;;;;;;-141.28;100.00;50206.56;5079455;28;20555;-74
2022/09/26 01:48:53;;;;;;;8.10;5.23;;;;;;;-141.28;100.00;50184.97;5080038;28;20203;-76
2022/09/26 01:51:26;;;;;;;9.93;5.77;;;;;;;-141.28;100.00;50165.34;5081608;28;20653;-76
2022/09/26 01:53:58;;;;;;;6.77;5.17;;;;;;;-141.28;100.00;50161.41;5084127;28;20627;-75
2022/09/26 01:56:28;;;;;;;9.33;5.40;;;;;;;-141.28;100.00;50163.38;5072561;28;20238;-76
2022/09/26 01:58:59;;;;;;;7.87;5.20;;;;;;;-141.28;100.00;50106.47;5085465;28;20229;-75
2022/09/26 02:01:31;;;;;;;6.40;4.40;;;;;;;-141.28;100.00;50110.38;5092211;28;20199;-75
2022/09/26 02:04:05;;;;;;;7.17;5.10;;;;;;;-141.28;100.00;50090.75;5060547;28;20211;-73
2022/09/26 02:06:37;;;;;;;12.60;5.53;;;;;;;-141.28;100.00;50098.63;5082971;28;20200;-77
2022/09/26 02:09:11;;;;;;;12.70;5.50;;;;;;;-141.28;100.00;50094.69;5078835;28;20661;-76
2022/09/26 02:11:41;;;;;;;7.23;5.37;;;;;;;-141.28;100.00;50098.63;5091485;28;20231;-77
2022/09/26 02:14:13;;;;;;;10.60;6.07;;;;;;;-141.28;100.00;50071.13;5100575;28;20653;-76
2022/09/26 02:16:46;;;;;;;12.60;5.83;;;;;;;-141.28;100.00;50082.91;5081788;28;20227;-77
2022/09/26 02:19:19;;;;;;;8.50;4.97;;;;;;;-141.28;100.00;50059.34;5072043;28;20264;-75
2022/09/26 02:21:46;;;;;;;7.07;5.17;;;;;;;-141.28;100.00;50049.53;5071407;28;20634;-75
2022/09/26 02:24:15;;;;;;;11.30;5.13;;;;;;;-141.28;100.00;50057.41;5072184;28;20192;-75
2022/09/26 02:26:42;;;;;;;9.67;5.43;;;;;;;-141.28;100.00;50027.97;5071870;28;20200;-75
2022/09/26 02:29:11;;;;;;;7.43;5.23;;;;;;;-141.28;100.00;50016.19;5085544;28;20257;-75
2022/09/26 02:31:43;;;;;;;6.87;5.80;;;;;;;-141.28;100.00;50012.25;5071649;28;20287;-74
2022/09/26 02:34:11;;;;;;;8.30;5.23;;;;;;;-141.28;100.00;50024.03;5079117;28;20597;-75
2022/09/26 02:36:38;;;;;;;8.83;6.10;;;;;;;-141.28;100.00;49992.63;5076856;28;20227;-74
2022/09/26 02:39:04;;;;;;;10.37;6.07;;;;;;;-141.28;100.00;49982.81;5087619;28;20206;-74
2022/09/26 02:41:40;;;;;;;9.00;5.83;;;;;;;-141.28;100.00;49961.22;5111151;28;20227;-76
2022/09/26 02:44:33;;;;;;;8.70;6.60;;;;;;;-141.28;100.00;50059.34;5111550;28;20198;-74
2022/09/26 02:47:33;;;;;;;9.30;5.83;;;;;;;-141.28;100.00;50094.69;5104416;28;20248;-76
2022/09/26 02:50:14;;;;;;;12.93;6.73;;;;;;;-141.28;100.00;50088.78;5091706;28;20207;-77
2022/09/26 02:52:52;;;;;;;8.60;6.00;;;;;;;-141.28;100.00;50031.88;5091388;28;20641;-75
2022/09/26 02:55:23;;;;;;;9.70;6.30;;;;;;;-141.28;100.00;49992.63;5087919;28;20195;-74
2022/09/26 02:58:02;;;;;;;8.17;5.77;;;;;;;-141.28;100.00;49945.53;5110001;28;20228;-73
2022/09/26 03:00:36;;;;;;;16.13;5.90;;;;;;;-141.28;100.00;49963.19;5110562;28;20247;-75
2022/09/26 03:03:12;;;;;;;8.93;5.90;;;;;;;-141.28;100.00;49941.59;5110155;28;20191;-75
2022/09/26 03:05:41;;;;;;;8.67;6.53;;;;;;;-141.28;100.00;49935.72;5097080;28;20272;-76
2022/09/26 03:08:11;;;;;;;12.70;6.60;;;;;;;-141.28;100.00;49910.19;5090927;28;20196;-73
2022/09/26 03:10:40;;;;;;;12.97;6.10;;;;;;;-141.28;100.00;49876.84;5103150;28;20322;-76
2022/09/26 03:13:12;;;;;;;6.07;5.27;;;;;;;-141.28;100.00;49855.25;5089257;28;20191;-75
2022/09/26 03:15:43;;;;;;;16.57;7.10;;;;;;;-141.28;100.00;49812.06;5099035;28;20252;-74
2022/09/26 03:18:16;;;;;;;7.77;5.70;;;;;;;-141.28;100.00;49835.63;5095087;28;20234;-75
2022/09/26 03:20:43;;;;;;;10.80;5.93;;;;;;;-141.28;100.00;49823.84;5091388;28;20257;-74
2022/09/26 03:23:10;;;;;;;9.60;4.97;;;;;;;-141.28;100.00;49776.75;5096073;28;20244;-74
2022/09/26 03:25:38;;;;;;;9.57;6.10;;;;;;;-141.28;100.00;49764.97;5100494;28;20195;-74
2022/09/26 03:28:05;;;;;;;7.67;5.53;;;;;;;-141.28;100.00;49741.44;5115144;28;20563;-74
2022/09/26 03:30:32;;;;;;;10.13;5.70;;;;;;;-141.28;100.00;49731.63;5110359;28;20251;-77
2022/09/26 03:33:01;;;;;;;13.90;5.90;;;;;;;-141.28;100.00;49706.09;5083753;28;20200;-75
2022/09/26 03:35:30;;;;;;;9.03;6.00;;;;;;;-141.28;100.00;49715.91;5088752;28;20224;-74
2022/09/26 03:38:00;;;;;;;11.37;5.50;;;;;;;-141.28;100.00;49710.03;5074653;28;20215;-75
2022/09/26 03:40:27;;;;;;;13.27;5.83;;;;;;;-141.28;100.00;49712.00;5074583;28;20208;-75
2022/09/26 03:42:54;;;;;;;11.30;6.17;;;;;;;-141.28;100.00;49666.84;5074502;28;20193;-76
2022/09/26 03:45:21;;;;;;;10.43;6.30;;;;;;;-141.28;100.00;49690.41;5096924;28;20192;-75
2022/09/26 03:47:48;;;;;;;12.67;6.30;;;;;;;-141.28;100.00;49684.53;5100555;28;20283;-76
2022/09/26 03:50:15;;;;;;;9.00;6.37;;;;;;;-141.28;100.00;49686.47;5074611;28;20204;-75
2022/09/26 03:52:43;;;;;;;10.83;6.10;;;;;;;-141.28;100.00;49676.66;5074661;28;20269;-76
2022/09/26 03:55:10;;;;;;;11.17;6.40;;;;;;;-141.28;100.00;49682.56;5094511;28;20192;-76
2022/09/26 03:57:39;;;;;;;11.03;6.10;;;;;;;-141.28;100.00;49694.31;5062624;28;20224;-75
2022/09/26 04:00:09;;;;;;;14.43;6.50;;;;;;;-141.28;100.00;49684.53;5106291;28;20192;-75
2022/09/26 04:02:36;;;;;;;13.43;6.30;;;;;;;-141.28;100.00;49682.56;5094663;28;20203;-74
2022/09/26 04:05:04;;;;;;;17.60;6.90;;;;;;;-141.28;100.00;49666.84;5095503;28;20202;-74
2022/09/26 04:07:31;;;;;;;10.20;6.17;;;;;;;-141.28;100.00;49682.56;5113322;28;20649;-75
2022/09/26 04:10:00;;;;;;;13.87;6.77;;;;;;;-141.28;100.00;49662.94;5113901;28;20235;-75
2022/09/26 04:12:27;;;;;;;28.93;7.83;;;;;;;-141.28;100.00;49680.59;5083030;28;20224;-76
2022/09/26 04:14:54;;;;;;;9.83;6.00;;;;;;;-141.28;100.00;49643.31;5082338;28;20657;-75
2022/09/26 04:17:21;;;;;;;17.30;6.93;;;;;;;-141.28;100.00;49682.56;5106756;28;20222;-75
2022/09/26 04:19:49;;;;;;;11.23;6.33;;;;;;;-141.28;100.00;49686.47;5084641;28;20200;-74
2022/09/26 04:22:17;;;;;;;11.13;6.47;;;;;;;-141.28;100.00;49668.81;5073479;28;20347;-75
2022/09/26 04:24:44;;;;;;;17.97;6.87;;;;;;;-141.28;100.00;49678.63;5082626;28;20244;-74
2022/09/26 04:27:14;;;;;;;10.43;6.87;;;;;;;-141.28;100.00;49710.03;5110323;28;20298;-76
2022/09/26 04:29:42;;;;;;;11.67;6.87;;;;;;;-141.28;100.00;49686.47;5102629;28;20227;-74
2022/09/26 04:32:11;;;;;;;15.50;7.33;;;;;;;-141.28;100.00;49719.84;5095605;28;20198;-75
2022/09/26 04:34:38;;;;;;;14.77;7.47;;;;;;;-141.28;100.00;49729.66;5112637;28;20198;-74
2022/09/26 04:37:05;;;;;;;36.50;20.77;;;;;;;-141.28;100.00;49717.88;5111889;28;20271;-76
2022/09/26 04:39:34;;;;;;;15.47;7.10;;;;;;;-141.28;100.00;49710.03;5100825;28;20241;-74
2022/09/26 04:42:03;;;;;;;12.17;7.27;;;;;;;-141.28;100.00;49712.00;5096303;28;20199;-74
2022/09/26 04:44:32;;;;;;;18.67;7.23;;;;;;;-141.28;100.00;49725.72;5112905;28;20217;-75
2022/09/26 04:46:59;;;;;;;12.63;7.10;;;;;;;-141.28;100.00;49706.09;5112254;28;20646;-77
2022/09/26 04:49:25;;;;;;;16.67;7.73;;;;;;;-141.28;100.00;49710.03;5112834;28;20281;-75
2022/09/26 04:51:52;;;;;;;16.77;7.60;;;;;;;-141.28;100.00;49733.56;5104670;28;20226;-74
2022/09/26 04:54:19;;;;;;;19.93;7.70;;;;;;;-141.28;100.00;49739.47;5092344;28;20199;-74
2022/09/26 04:56:47;;;;;;;20.10;8.60;;;;;;;-141.28;100.00;49723.75;5112761;28;20680;-76
2022/09/26 04:59:14;;;;;;;20.13;7.90;;;;;;;-141.28;100.00;49761.06;5099082;28;20196;-75
2022/09/26 05:01:44;;;;;;;19.53;8.03;;;;;;;-141.28;100.00;49768.91;5096972;28;20194;-76
2022/09/26 05:04:11;;;;;;;19.40;8.73;;;;;;;-141.28;100.00;49755.16;5101441;28;20595;-75
2022/09/26 05:06:39;;;;;;;16.87;8.00;;;;;;;-141.28;100.00;49749.28;5096102;28;20300;-75
2022/09/26 05:09:06;;;;;;;11.57;7.40;;;;;;;-141.28;100.00;49764.97;5112941;28;20437;-75
2022/09/26 05:11:33;;;;;;;18.60;7.43;;;;;;;-141.28;100.00;49772.81;5094057;28;20224;-77
2022/09/26 05:14:02;;;;;;;24.83;8.27;;;;;;;-141.28;100.00;49763.00;5078876;28;20258;-75
2022/09/26 05:16:29;;;;;;;26.63;9.53;;;;;;;-141.28;100.00;49823.84;5092279;28;20211;-76
2022/09/26 05:18:57;;;;;;;39.17;8.83;;;;;;;-141.28;100.00;49819.94;5092092;28;20573;-75
2022/09/26 05:21:24;;;;;;;23.80;8.50;;;;;;;-141.28;100.00;49816.00;5085138;28;20613;-75
2022/09/26 05:26:42;;;;;;;26.60;9.57;;;;;;;-141.28;100.00;49906.28;5083635;28;20676;-75
2022/09/26 05:29:09;;;;;;;24.17;8.87;;;;;;;-141.28;100.00;49880.75;5078791;28;20716;-77
2022/09/26 05:31:37;;;;;;;33.17;9.20;;;;;;;-141.28;100.00;49869.00;5085881;28;20218;-77
2022/09/26 05:34:09;;;;;;;27.90;8.80;;;;;;;-141.28;100.00;49884.69;5072252;28;20276;-75
2022/09/26 05:36:36;;;;;;;29.47;9.03;;;;;;;-141.28;100.00;49865.06;5091232;28;20279;-76
2022/09/26 05:39:05;;;;;;;24.83;9.43;;;;;;;-141.28;100.00;49945.53;5080628;28;20216;-74
2022/09/26 05:41:32;;;;;;;32.23;9.27;;;;;;;-141.28;100.00;49935.72;5072396;28;20265;-75
2022/09/26 05:44:00;;;;;;;16.70;8.13;;;;;;;-141.28;100.00;49953.38;5072290;28;20200;-75
2022/09/26 05:46:27;;;;;;;21.87;7.93;;;;;;;-141.28;100.00;50043.66;5086303;28;20260;-76
2022/09/26 05:48:56;;;;;;;27.70;7.97;;;;;;;-141.28;100.00;50035.81;5085691;28;20286;-74
2022/09/26 05:51:24;;;;;;;33.00;8.50;;;;;;;-141.28;100.00;50094.69;5081740;28;20294;-75
2022/09/26 05:53:52;;;;;;;28.43;8.57;;;;;;;-141.28;100.00;50114.31;5097253;28;20256;-76
2022/09/26 05:56:19;;;;;;;14.57;8.30;;;;;;;-141.28;100.00;50110.38;5085102;28;20655;-74
2022/09/26 05:58:47;;;;;;;18.67;8.63;;;;;;;-141.28;100.00;50126.09;5074997;28;20254;-75
2022/09/26 06:01:16;;;;;;;16.93;8.33;;;;;;;-141.28;100.00;50106.47;5092345;28;20674;-77
2022/09/26 06:03:45;;;;;;;29.23;9.57;;;;;;;-141.28;100.00;50145.72;5093447;28;20276;-74
2022/09/26 06:06:14;;;;;;;19.90;8.63;;;;;;;-141.28;100.00;50167.31;5093273;28;20193;-76
2022/09/26 06:08:44;;;;;;;25.13;7.80;;;;;;;-141.28;100.00;50192.81;5081510;28;20253;-75
2022/09/26 06:11:13;;;;;;;18.10;7.13;;;;;;;-141.28;100.00;50208.53;5071542;28;20235;-76
2022/09/26 06:13:42;;;;;;;19.07;7.27;;;;;;;-141.28;100.00;50173.19;5071794;28;20655;-75
2022/09/26 06:16:13;;;;;;;15.33;6.60;;;;;;;-141.28;100.00;50236.00;5077612;28;20289;-76
2022/09/26 06:18:41;;;;;;;14.27;6.10;;;;;;;-141.28;100.00;50222.25;5091674;28;20697;-76
2022/09/26 06:21:10;;;;;;;13.50;6.80;;;;;;;-141.28;100.00;50232.06;5084838;28;20205;-76
2022/09/26 06:23:37;;;;;;;12.40;6.77;;;;;;;-141.28;100.00;50173.19;5111260;28;20195;-76
2022/09/26 06:26:08;;;;;;;16.07;6.70;;;;;;;-141.28;100.00;50216.38;5104294;28;20261;-75
2022/09/26 06:28:35;;;;;;;14.70;7.17;;;;;;;-141.28;100.00;50208.53;5091623;28;20207;-75
2022/09/26 06:31:09;;;;;;;14.30;7.67;;;;;;;-141.28;100.00;50239.94;5083621;28;20249;-75
2022/09/26 06:33:36;;;;;;;21.07;7.17;;;;;;;-141.28;100.00;50196.75;5085298;28;20199;-76
2022/09/26 06:36:06;;;;;;;13.03;6.50;;;;;;;-141.28;100.00;50224.22;5080799;28;20735;-74
2022/09/26 06:38:33;;;;;;;19.70;7.13;;;;;;;-141.28;100.00;50228.16;5076533;28;20251;-76
2022/09/26 06:41:00;;;;;;;21.50;7.83;;;;;;;-141.28;100.00;50245.81;5071710;28;20204;-76
2022/09/26 06:43:30;;;;;;;21.83;7.47;;;;;;;-141.28;100.00;50263.47;5074353;28;20735;-75
2022/09/26 06:45:57;;;;;;;20.73;7.30;;;;;;;-141.28;100.00;50188.91;5091324;28;20195;-77
2022/09/26 06:48:24;;;;;;;22.90;7.80;;;;;;;-141.28;100.00;50236.00;5107484;28;20191;-76
2022/09/26 06:50:52;;;;;;;19.83;5.90;;;;;;;-141.28;100.00;50161.41;5095182;28;20195;-75
2022/09/26 06:53:19;;;;;;;28.63;6.23;;;;;;;-141.28;100.00;50181.03;5095051;28;20244;-75
2022/09/26 06:55:46;;;;;;;19.80;7.40;;;;;;;-141.28;100.00;50137.88;5107810;28;20195;-76
2022/09/26 06:58:13;;;;;;;24.53;7.40;;;;;;;-141.28;100.00;50149.63;5101081;28;20287;-75
2022/09/26 07:00:42;;;;;;;28.27;7.67;;;;;;;-141.28;100.00;50179.09;5115390;28;20256;-77
2022/09/26 07:03:10;;;;;;;19.23;6.80;;;;;;;-141.28;100.00;50035.81;5095827;28;20198;-76
2022/09/26 07:05:38;;;;;;;32.67;6.97;;;;;;;-141.28;100.00;49982.81;5108201;28;20282;-75
2022/09/26 07:08:05;;;;;;;18.43;6.37;;;;;;;-141.28;100.00;50455.84;5075812;28;20196;-75
2022/09/26 07:10:34;;;;;;;22.83;7.00;;;;;;;-141.28;100.00;50463.69;5074953;28;20215;-74
2022/09/26 07:13:04;;;;;;;11.97;5.80;;;;;;;-141.28;100.00;50385.16;5088111;28;20195;-75
2022/09/26 07:15:32;;;;;;;21.13;5.93;;;;;;;-141.28;100.00;50318.44;5087665;28;20659;-75
2022/09/26 07:18:03;;;;;;;16.20;6.03;;;;;;;-141.28;100.00;50259.56;5074515;28;20763;-77
2022/09/26 07:20:34;;;;;;;12.67;4.40;;;;;;;-141.28;100.00;50126.09;5089451;28;20654;-76
2022/09/26 07:23:02;;;;;;;14.73;4.87;;;;;;;-141.28;100.00;49943.56;5085882;28;20662;-75
2022/09/26 07:25:30;;;;;;;14.03;4.87;;;;;;;-141.28;100.00;49710.03;5092891;28;20196;-74
2022/09/26 07:27:58;;;;;;;11.40;4.87;;;;;;;-141.28;100.00;49619.75;5105274;28;20195;-75
2022/09/26 07:30:25;;;;;;;13.70;5.00;;;;;;;-141.28;100.00;49623.69;5097300;28;20207;-75
2022/09/26 07:32:52;;;;;;;13.60;4.63;;;;;;;-141.28;100.00;49478.47;5094700;28;20201;-75
2022/09/26 07:35:20;;;;;;;20.00;5.13;;;;;;;-141.28;100.00;49425.50;5081270;28;20194;-74
2022/09/26 07:37:52;;;;;;;11.67;4.23;;;;;;;-141.28;100.00;49435.31;5114312;28;20227;-76
2022/09/26 07:40:21;;;;;;;11.93;4.93;;;;;;;-141.28;100.00;49407.84;5092054;28;20196;-76
2022/09/26 07:42:50;;;;;;;10.40;4.40;;;;;;;-141.28;100.00;49486.31;5074996;28;20207;-76
2022/09/26 07:50:09;;;;;;;27.87;6.87;;;;;;;-141.28;100.00;49560.88;5088909;28;20669;-74
2022/09/26 07:50:56;;;;;;;10.43;5.10;;;;;;;-141.28;100.00;49637.41;5075206;28;20204;-76
2022/09/26 07:53:24;;;;;;;7.23;5.20;;;;;;;-141.28;100.00;49710.03;5081101;28;20200;-74
2022/09/26 07:56:09;;;;;;;13.57;5.03;;;;;;;-141.28;100.00;49496.13;5081955;28;20239;-77
2022/09/26 07:58:38;;;;;;;9.97;4.30;;;;;;;-141.28;100.00;49435.31;5082993;28;20223;-74
2022/09/26 08:01:10;;;;;;;11.63;4.37;;;;;;;-141.28;100.00;49362.69;5094726;28;20714;-76
2022/09/26 08:03:37;;;;;;;7.10;4.57;;;;;;;-141.28;100.00;49290.09;5085591;28;20197;-76
2022/09/26 08:06:08;;;;;;;12.30;8.57;;;;;;;-141.28;100.00;49290.09;5094049;28;20614;-75
2022/09/26 08:08:36;;;;;;;5.43;4.30;;;;;;;-141.28;100.00;49260.66;5079948;28;20200;-75
2022/09/26 08:11:06;;;;;;;7.73;3.90;;;;;;;-141.28;100.00;49246.94;5093103;28;20307;-76
2022/09/26 08:13:34;;;;;;;6.37;3.93;;;;;;;-141.28;100.00;49513.78;5095825;28;20203;-76
2022/09/26 08:16:04;;;;;;;8.97;4.40;;;;;;;-141.28;100.00;49176.28;5081767;28;20658;-76
2022/09/26 08:18:34;;;;;;;10.33;4.23;;;;;;;-141.28;100.00;49148.81;5105599;28;20234;-75
2022/09/26 08:21:04;;;;;;;6.57;4.47;;;;;;;-141.28;100.00;49137.06;5080921;28;20203;-76
2022/09/26 08:23:34;;;;;;;5.03;4.00;;;;;;;-141.28;100.00;49113.50;5080619;28;20234;-76
2022/09/26 08:26:03;;;;;;;7.10;4.60;;;;;;;-141.28;100.00;49031.09;5073727;28;20192;-75
2022/09/26 08:28:31;;;;;;;5.77;3.60;;;;;;;-141.28;100.00;49140.97;5087074;28;20203;-75
2022/09/26 08:30:59;;;;;;;5.50;4.30;;;;;;;-141.28;100.00;49133.13;5081165;28;20199;-76
2022/09/26 08:33:26;;;;;;;5.90;4.20;;;;;;;-141.28;100.00;49362.69;5093697;28;20223;-75
2022/09/26 08:35:54;;;;;;;7.27;4.27;;;;;;;-141.28;100.00;49078.19;5101538;28;20195;-76
2022/09/26 08:38:22;;;;;;;7.47;4.10;;;;;;;-141.28;100.00;49133.13;5088816;28;20306;-77
2022/09/26 08:41:01;;;;;;;10.90;4.57;;;;;;;-141.28;100.00;49121.34;5080013;28;20311;-75
2022/09/26 08:44:07;;;;;;;13.43;4.53;;;;;;;-141.28;100.00;49117.44;5084910;28;20204;-76
2022/09/26 08:46:51;;;;;;;6.47;3.93;;;;;;;-141.28;100.00;49093.88;5073152;28;20200;-75
2022/09/26 08:49:42;;;;;;;6.70;4.17;;;;;;;-141.28;100.00;49111.53;5075954;28;20227;-76
2022/09/26 08:52:28;;;;;;;8.07;5.00;;;;;;;-141.28;100.00;49082.13;5079094;28;20222;-77
2022/09/26 08:54:58;;;;;;;7.53;4.70;;;;;;;-141.28;100.00;49074.25;5075417;28;20299;-75
2022/09/26 08:57:37;;;;;;;11.43;4.40;;;;;;;-141.28;100.00;49042.88;5093287;28;20192;-76
2022/09/26 09:00:14;;;;;;;15.30;5.20;;;;;;;-141.28;100.00;49017.38;5074145;28;20220;-78
2022/09/26 09:02:49;;;;;;;7.20;4.13;;;;;;;-141.28;100.00;48942.81;5085871;28;20201;-75
2022/09/26 09:05:22;;;;;;;15.90;4.53;;;;;;;-141.28;100.00;49042.88;5080856;28;20227;-76
2022/09/26 09:07:53;;;;;;;8.27;4.03;;;;;;;-141.28;100.00;49017.38;5081629;28;20576;-75
2022/09/26 09:10:36;;;;;;;8.97;4.00;;;;;;;-141.28;100.00;49007.56;5103159;28;20195;-77
2022/09/26 09:13:18;;;;;;;11.07;3.90;;;;;;;-141.28;100.00;49027.19;5073322;28;20223;-76
2022/09/26 09:16:03;;;;;;;9.07;3.73;;;;;;;-141.28;100.00;49019.31;5099419;28;20618;-76
2022/09/26 09:18:36;;;;;;;7.27;3.60;;;;;;;-141.28;100.00;49023.25;5072800;28;20293;-75
2022/09/26 09:21:19;;;;;;;4.10;3.23;;;;;;;-141.28;100.00;49011.47;5086480;28;20194;-76
2022/09/26 09:24:03;;;;;;;9.83;3.57;;;;;;;-141.28;100.00;48999.72;5102371;28;20200;-75
2022/09/26 09:26:37;;;;;;;7.70;3.70;;;;;;;-141.28;100.00;49001.66;5073412;28;20259;-75
2022/09/26 09:29:27;;;;;;;9.13;3.70;;;;;;;-141.28;96.31;48991.84;5086175;28;20627;-76
2022/09/26 09:31:56;;;;;;;4.90;3.10;;;;;;;-141.28;95.01;48972.25;5082801;28;20233;-75
2022/09/26 09:34:27;;;;;;;10.10;4.10;;;;;;;-141.28;89.05;48960.47;5092517;28;20603;-75
2022/09/26 09:36:59;;;;;;;7.20;3.50;;;;;;;-141.28;83.13;48968.31;5092537;28;20192;-75
2022/09/26 09:39:31;;;;;;;17.37;4.20;;;;;;;-141.28;93.09;48976.16;5075214;28;20289;-75
2022/09/26 09:42:04;;;;;;;8.47;3.57;;;;;;;-141.28;86.52;48948.69;5072449;28;20639;-75
2022/09/26 09:44:43;;;;;;;8.00;3.63;;;;;;;-141.28;83.92;48944.78;5072997;28;20203;-77
2022/09/26 09:47:14;;;;;;;9.20;3.50;;;;;;;-141.28;84.77;48985.97;5075724;28;20268;-75
2022/09/26 09:49:42;;;;;;;7.77;3.50;;;;;;;-141.28;83.10;48960.47;5082779;28;20717;-74
2022/09/26 09:52:21;;;;;;;9.07;3.60;;;;;;;-141.28;81.89;48972.25;5073695;28;20261;-77
2022/09/26 09:54:59;;;;;;;6.33;3.70;;;;;;;-141.28;83.75;48960.47;5072419;28;20199;-77
2022/09/26 09:57:47;;;;;;;6.30;3.33;;;;;;;-141.28;82.72;48952.63;5085599;28;20234;-75
2022/09/26 10:00:18;;;;;;;11.37;3.50;;;;;;;-141.28;77.25;48948.69;5086034;28;20252;-77
2022/09/26 10:02:58;;;;;;;8.70;3.70;;;;;;;-141.28;73.81;48907.50;5072260;28;20258;-74
2022/09/26 10:05:37;;;;;;;10.10;3.40;;;;;;;-141.28;77.50;48936.91;5078881;28;20191;-76
2022/09/26 10:08:12;;;;;;;8.07;3.47;;;;;;;-141.28;80.66;48976.16;5078510;28;20200;-74
2022/09/26 10:10:46;;;;;;;5.60;2.80;;;;;;;-141.28;81.04;48980.09;5082496;28;20231;-76
2022/09/26 10:13:14;;;;;;;8.20;3.27;;;;;;;-141.28;83.51;48987.94;5087792;28;20672;-75
2022/09/26 10:15:49;;;;;;;6.50;3.23;;;;;;;-141.28;80.50;48995.78;5082486;28;20227;-77
2022/09/26 10:18:20;;;;;;;3.90;2.80;;;;;;;-141.28;83.33;48921.22;5101199;28;20210;-77
2022/09/26 10:20:54;;;;;;;8.43;2.83;;;;;;;-141.28;81.98;49329.34;5106270;28;20241;-76
2022/09/26 10:23:31;;;;;;;4.07;3.00;;;;;;;-141.28;84.39;48987.94;5102362;28;20200;-77
2022/09/26 10:26:02;;;;;;;6.90;3.07;;;;;;;-141.28;91.15;49007.56;5096879;28;20191;-76
2022/09/26 10:28:34;;;;;;;4.93;2.70;;;;;;;-141.28;89.44;49009.50;5109722;28;20198;-75
2022/09/26 10:31:09;;;;;;;6.70;3.10;;;;;;;-141.28;91.75;48976.16;5102400;28;20237;-74
2022/09/26 10:33:44;;;;;;;6.33;3.30;;;;;;;-141.28;90.92;48999.72;5089400;28;20241;-76
2022/09/26 10:36:19;;;;;;;11.97;3.10;;;;;;;-141.28;94.98;48950.66;5091111;28;20279;-74
2022/09/26 10:41:44;;;;;;;6.20;2.80;;;;;;;-141.28;76.49;48901.59;5088619;28;20208;-76
2022/09/26 10:44:23;;;;;;;6.20;2.73;;;;;;;-141.28;70.80;48870.22;5071201;28;20759;-76
2022/09/26 10:47:08;;;;;;;4.73;2.90;;;;;;;-141.28;68.64;48819.22;5071948;28;20209;-75
2022/09/26 10:49:40;;;;;;;5.90;2.70;;;;;;;-141.28;67.23;48850.59;5072478;28;20609;-77
2022/09/26 10:52:13;;;;;;;4.20;2.73;;;;;;;-141.28;69.08;48862.38;5071236;28;20222;-74
2022/09/26 10:54:46;;;;;;;5.33;3.00;;;;;;;-141.28;73.45;48891.78;5074350;28;20199;-76
2022/09/26 10:57:23;;;;;;;2.83;2.40;;;;;;;-141.28;72.01;48870.22;5073609;28;20258;-76
2022/09/26 10:59:53;;;;;;;5.57;2.83;;;;;;;-141.28;71.03;48874.13;5075534;28;20218;-76
2022/09/26 11:02:28;;;;;;;6.37;3.00;;;;;;;-141.28;70.11;48864.34;5103933;28;20285;-77
2022/09/26 11:07:48;;;;;;;4.10;3.00;;;;;;;-141.28;78.01;48933.00;5071538;28;20200;-75
2022/09/26 11:10:22;;;;;;;12.70;2.80;;;;;;;-141.28;79.76;48905.53;5071378;28;20196;-75
2022/09/26 11:12:58;;;;;;;5.17;2.50;;;;;;;-141.28;78.59;48901.59;5094275;28;20218;-74
2022/09/26 11:15:27;;;;;;;7.93;2.80;;;;;;;-141.28;72.87;48783.91;5098189;28;20282;-75
2022/09/26 11:17:56;;;;;;;3.70;2.63;;;;;;;-141.28;70.75;48819.22;5096973;28;20272;-75
2022/09/26 11:20:45;;;;;;;9.17;2.80;;;;;;;-141.28;70.10;48850.59;5094811;28;20305;-77
2022/09/26 11:23:31;;;;;;;5.33;2.47;;;;;;;-141.28;67.99;48854.53;5082191;28;20230;-75
2022/09/26 11:26:11;;;;;;;2.73;2.20;;;;;;;-141.28;67.03;48842.75;5097997;28;20227;-75
2022/09/26 11:28:44;;;;;;;4.37;2.47;;;;;;;-141.28;68.65;48844.72;5107899;28;20277;-76
2022/09/26 11:31:19;;;;;;;8.50;2.87;;;;;;;-141.28;67.61;48883.94;5090818;28;20342;-75
2022/09/26 11:33:49;;;;;;;6.53;2.40;;;;;;;-141.28;67.10;48811.34;5102323;28;20226;-76
2022/09/26 11:36:30;;;;;;;7.57;3.10;;;;;;;-141.28;65.25;48807.44;5091642;28;20278;-75
2022/09/26 11:39:01;;;;;;;3.13;2.23;;;;;;;-141.28;65.92;48815.28;5086809;28;20223;-75